Time;durP1;ratioP1;P1;durP2;ratioP2;P2;SDS_P1;SDS_P2;PMS_P1;PMS_P2;Temp;Humidity;BMP_temperature;BMP_pressure;BME280_temperature;BME280_humidity;BME280_pressure;Samples;Min_cycle;Max_cycle;Signal;HPM_P1;HPM_P2
2024/04/10 00:00:17;;;;;;;1999.90;999.90;;;10.00;99.90;;;;;;5380296;26;20004;-66
2024/04/10 00:02:43;;;;;;;1999.90;999.90;;;10.00;99.90;;;;;;5380356;26;20313;-72
2024/04/10 00:05:09;;;;;;;1999.90;999.90;;;10.00;99.90;;;;;;5380223;26;20385;-66
2024/04/10 00:07:35;;;;;;;1999.90;999.90;;;9.90;99.90;;;;;;5380187;26;20103;-67
2024/04/10 00:10:01;;;;;;;1999.90;999.90;;;9.90;99.90;;;;;;5379552;26;20066;-66
2024/04/10 00:12:28;;;;;;;1999.90;999.90;;;10.00;99.90;;;;;;5380242;26;19996;-66
2024/04/10 00:14:53;;;;;;;1999.90;999.90;;;9.90;99.90;;;;;;5380069;26;20057;-67
2024/04/10 00:17:19;;;;;;;1999.90;999.90;;;10.00;99.90;;;;;;5380376;26;20000;-67
2024/04/10 00:19:51;;;;;;;1999.90;999.90;;;9.90;99.90;;;;;;5380021;26;20012;-66
2024/04/10 00:22:17;;;;;;;1999.90;999.90;;;9.90;99.90;;;;;;5378869;26;20019;-66
2024/04/10 00:24:42;;;;;;;1999.90;999.90;;;9.90;99.90;;;;;;5378786;26;20327;-66
2024/04/10 00:27:08;;;;;;;1999.90;999.90;;;10.00;99.90;;;;;;5379297;26;19996;-72
2024/04/10 00:29:33;;;;;;;1999.90;999.90;;;10.00;99.90;;;;;;5379702;26;20001;-67
2024/04/10 00:31:59;;;;;;;1999.90;999.90;;;10.10;99.90;;;;;;5379986;26;20008;-66
2024/04/10 00:34:25;;;;;;;1999.90;999.90;;;10.10;99.90;;;;;;5379589;26;20424;-66
2024/04/10 00:36:51;;;;;;;1999.90;999.90;;;10.20;99.90;;;;;;5379590;26;20011;-67
2024/04/10 00:39:17;;;;;;;1999.90;999.90;;;10.20;99.90;;;;;;5380074;26;20000;-66
2024/04/10 00:41:42;;;;;;;1999.90;999.90;;;10.10;99.90;;;;;;5380060;26;20003;-72
2024/04/10 00:44:08;;;;;;;1999.90;999.90;;;10.20;99.90;;;;;;5380164;26;20000;-66
2024/04/10 00:46:35;;;;;;;1999.90;999.90;;;10.20;99.90;;;;;;5380296;26;19992;-66
2024/04/10 00:49:01;;;;;;;1999.90;999.90;;;10.20;99.90;;;;;;5382614;26;20331;-66
2024/04/10 00:51:28;;;;;;;1999.90;999.90;;;10.20;99.90;;;;;;5383402;26;20007;-71
2024/04/10 00:53:54;;;;;;;1999.90;999.90;;;10.10;99.90;;;;;;5383376;26;20074;-66
2024/04/10 00:56:20;;;;;;;1999.90;999.90;;;10.10;99.90;;;;;;5383483;26;20042;-66
2024/04/10 00:58:48;;;;;;;1999.90;999.90;;;10.10;99.90;;;;;;5382630;26;20006;-66
2024/04/10 01:01:14;;;;;;;1999.90;999.90;;;10.00;99.90;;;;;;5382996;26;20007;-66
2024/04/10 01:03:40;;;;;;;1999.90;999.90;;;10.00;99.90;;;;;;5323609;26;20004;-66
2024/04/10 01:06:09;;;;;;;1999.90;999.90;;;9.90;99.90;;;;;;5382968;26;20000;-66
2024/04/10 01:08:36;;;;;;;1999.90;999.90;;;9.90;99.90;;;;;;5382547;26;20485;-72
2024/04/10 01:11:04;;;;;;;1999.90;999.90;;;9.90;99.90;;;;;;5382603;26;20004;-66
2024/04/10 01:13:30;;;;;;;1999.90;999.90;;;9.90;99.90;;;;;;5382697;26;19996;-66
2024/04/10 01:15:56;;;;;;;1999.90;999.90;;;9.90;99.90;;;;;;5383077;26;20011;-66
2024/04/10 01:18:22;;;;;;;1999.90;999.90;;;9.80;99.90;;;;;;5382824;26;20012;-72
2024/04/10 01:20:50;;;;;;;1999.90;999.90;;;9.80;99.90;;;;;;5383067;26;19996;-66
2024/04/10 01:23:16;;;;;;;1999.90;999.90;;;9.70;99.90;;;;;;5383118;26;19996;-66
2024/04/10 01:25:42;;;;;;;1999.90;999.90;;;9.70;99.90;;;;;;5382252;26;20007;-66
2024/04/10 01:28:08;;;;;;;1999.90;999.90;;;9.70;99.90;;;;;;5382882;26;19996;-66
2024/04/10 01:30:34;;;;;;;1999.90;999.90;;;9.70;99.90;;;;;;5382310;26;20015;-67
2024/04/10 01:33:00;;;;;;;1999.90;999.90;;;9.70;99.90;;;;;;5382846;26;20004;-66
2024/04/10 01:35:25;;;;;;;1999.90;999.90;;;9.80;99.90;;;;;;5382555;26;20000;-66
2024/04/10 01:37:51;;;;;;;1999.90;999.90;;;9.70;99.90;;;;;;5382101;26;20004;-66
2024/04/10 01:40:17;;;;;;;1999.90;999.90;;;9.70;99.90;;;;;;5382457;26;20336;-72
2024/04/10 01:42:45;;;;;;;1999.90;999.90;;;9.70;99.90;;;;;;5382296;26;20000;-66
2024/04/10 01:45:12;;;;;;;1999.90;999.90;;;9.70;99.90;;;;;;5382386;26;20008;-66
2024/04/10 01:47:38;;;;;;;1999.90;999.90;;;9.70;99.90;;;;;;5351294;26;19996;-66
2024/04/10 01:50:05;;;;;;;1999.90;999.90;;;9.80;99.90;;;;;;5382012;26;20331;-66
2024/04/10 01:52:31;;;;;;;1999.90;999.90;;;9.70;99.90;;;;;;5381533;26;20447;-71
2024/04/10 01:54:56;;;;;;;1999.90;999.90;;;9.60;99.90;;;;;;5382182;26;20068;-66
2024/04/10 01:57:22;;;;;;;1999.90;999.90;;;9.50;99.90;;;;;;5382344;26;19993;-67
2024/04/10 01:59:48;;;;;;;1999.90;999.90;;;9.50;99.90;;;;;;5381523;26;20062;-66
2024/04/10 02:02:14;;;;;;;1999.90;999.90;;;9.40;99.90;;;;;;5381947;26;19997;-66
2024/04/10 02:04:40;;;;;;;1999.90;999.90;;;9.40;99.90;;;;;;5381903;26;20096;-66
2024/04/10 02:07:05;;;;;;;1999.90;999.90;;;9.30;99.90;;;;;;5382027;26;19992;-66
2024/04/10 02:09:31;;;;;;;1999.90;999.90;;;9.30;99.90;;;;;;5381696;26;20007;-66
2024/04/10 02:11:57;;;;;;;1999.90;999.90;;;9.30;99.90;;;;;;5381841;26;20000;-66
2024/04/10 02:14:23;;;;;;;1999.90;999.90;;;9.30;99.90;;;;;;5381724;26;20000;-66
2024/04/10 02:16:48;;;;;;;1999.90;999.90;;;9.30;99.90;;;;;;5381933;26;20011;-66
2024/04/10 02:19:14;;;;;;;1999.90;999.90;;;9.40;99.90;;;;;;5382097;26;20432;-66
2024/04/10 02:21:40;;;;;;;1999.90;999.90;;;9.40;99.90;;;;;;5381800;26;20292;-66
2024/04/10 02:24:08;;;;;;;1999.90;999.90;;;9.30;99.90;;;;;;5381517;26;20004;-72
2024/04/10 02:26:34;;;;;;;1999.90;999.90;;;9.30;99.90;;;;;;5381077;26;19992;-66
2024/04/10 02:28:59;;;;;;;1999.90;999.90;;;9.30;99.90;;;;;;5381497;26;20044;-66
2024/04/10 02:31:25;;;;;;;1999.90;999.90;;;9.20;99.90;;;;;;5382442;26;20408;-66
2024/04/10 02:33:51;;;;;;;1999.90;999.90;;;9.10;99.90;;;;;;5381712;26;20011;-66
2024/04/10 02:36:17;;;;;;;1999.90;999.90;;;9.10;99.90;;;;;;5381518;26;20435;-66
2024/04/10 02:38:44;;;;;;;1999.90;999.90;;;9.10;99.90;;;;;;5381455;26;20024;-66
2024/04/10 02:41:09;;;;;;;1999.90;999.90;;;9.00;99.90;;;;;;5381574;26;20394;-66
2024/04/10 02:43:35;;;;;;;1999.90;999.90;;;9.00;99.90;;;;;;5381612;26;20000;-66
2024/04/10 02:46:02;;;;;;;1999.90;999.90;;;9.00;99.90;;;;;;5381715;26;19992;-66
2024/04/10 02:48:28;;;;;;;1999.90;999.90;;;9.00;99.90;;;;;;5381663;26;20004;-66
2024/04/10 02:50:55;;;;;;;1999.90;999.90;;;9.00;99.90;;;;;;5381041;26;20074;-66
2024/04/10 02:53:22;;;;;;;1999.90;999.90;;;9.00;99.90;;;;;;5381567;26;20007;-66
2024/04/10 02:55:50;;;;;;;1999.90;999.90;;;9.00;99.90;;;;;;5381428;26;20804;-66
2024/04/10 02:58:16;;;;;;;1999.90;999.90;;;9.00;99.90;;;;;;5381582;26;20069;-66
2024/04/10 03:00:48;;;;;;;1999.90;999.90;;;9.00;99.90;;;;;;5381219;26;20044;-66
2024/04/10 03:03:14;;;;;;;1999.90;999.90;;;9.00;99.90;;;;;;5380918;26;19992;-66
2024/04/10 03:05:41;;;;;;;1999.90;999.90;;;9.10;99.90;;;;;;5381207;26;20027;-66
2024/04/10 03:08:07;;;;;;;1999.90;999.90;;;9.10;99.90;;;;;;5381371;26;19996;-66
2024/04/10 03:10:32;;;;;;;1999.90;999.90;;;9.20;99.90;;;;;;5379562;26;20334;-66
2024/04/10 03:12:58;;;;;;;1999.90;999.90;;;9.30;99.90;;;;;;5381046;26;20449;-66
2024/04/10 03:15:25;;;;;;;1999.90;999.90;;;9.40;99.90;;;;;;5380914;26;19992;-67
2024/04/10 03:17:53;;;;;;;1999.90;999.90;;;9.50;99.90;;;;;;5381463;26;20004;-66
2024/04/10 03:20:19;;;;;;;1999.90;999.90;;;9.50;99.90;;;;;;5381413;26;20320;-66
2024/04/10 03:22:45;;;;;;;1999.90;999.90;;;9.60;99.90;;;;;;5381046;26;20015;-72
2024/04/10 03:25:11;;;;;;;1999.90;999.90;;;9.60;99.90;;;;;;5381145;26;20015;-67
2024/04/10 03:27:36;;;;;;;1999.90;999.90;;;9.60;99.90;;;;;;5380926;26;20004;-66
2024/04/10 03:31:46;;;;;;;1999.90;999.90;;;9.70;99.90;;;;;;5581711;25;20299;-66
2024/04/10 03:34:12;;;;;;;1999.90;999.90;;;9.70;99.90;;;;;;5544993;25;20428;-66
2024/04/10 03:36:40;;;;;;;1999.90;999.90;;;9.70;99.90;;;;;;5544694;25;19997;-67
2024/04/10 03:39:08;;;;;;;1999.90;999.90;;;9.70;99.90;;;;;;5542910;25;20008;-67
2024/04/10 03:41:34;;;;;;;1999.90;999.90;;;9.80;99.90;;;;;;5544108;25;20011;-67
2024/04/10 03:44:00;;;;;;;1999.90;999.90;;;9.70;99.90;;;;;;5544580;25;20428;-66
2024/04/10 03:46:26;;;;;;;1999.90;999.90;;;9.60;99.90;;;;;;5544859;25;20032;-66
2024/04/10 03:48:52;;;;;;;1999.90;999.90;;;9.60;99.90;;;;;;5544354;25;20004;-67
2024/04/10 03:51:19;;;;;;;1999.90;999.90;;;9.50;99.90;;;;;;5544344;25;20012;-66
2024/04/10 03:53:45;;;;;;;1999.90;999.90;;;9.60;99.90;;;;;;5544052;25;20058;-67
2024/04/10 03:56:11;;;;;;;1999.90;999.90;;;9.60;99.90;;;;;;5544656;25;20001;-66
2024/04/10 03:58:37;;;;;;;1999.90;999.90;;;9.70;99.90;;;;;;5543764;25;19989;-66
2024/04/10 04:01:03;;;;;;;1999.90;999.90;;;9.70;99.90;;;;;;5543319;25;19993;-68
2024/04/10 04:03:28;;;;;;;1999.90;999.90;;;9.70;99.90;;;;;;5573604;25;20008;-67
2024/04/10 04:05:54;;;;;;;1999.90;999.90;;;9.60;99.90;;;;;;5581299;25;20006;-66
2024/04/10 04:08:22;;;;;;;1999.90;999.90;;;9.60;99.90;;;;;;5582030;25;20068;-67
2024/04/10 04:10:48;;;;;;;1999.90;999.90;;;9.50;99.90;;;;;;5569193;25;20069;-66
2024/04/10 04:13:14;;;;;;;1999.90;999.90;;;9.50;99.90;;;;;;5571391;25;19997;-66
2024/04/10 04:15:40;;;;;;;1999.90;999.90;;;9.40;99.90;;;;;;5581827;25;20428;-66
2024/04/10 04:18:07;;;;;;;1999.90;999.90;;;9.40;99.90;;;;;;5581590;25;20391;-67
2024/04/10 04:20:32;;;;;;;1999.90;999.90;;;9.30;99.90;;;;;;5581570;25;20071;-67
2024/04/10 04:22:58;;;;;;;1999.90;999.90;;;9.30;99.90;;;;;;5565360;25;20005;-67
2024/04/10 04:25:24;;;;;;;1999.90;999.90;;;9.30;99.90;;;;;;5543022;25;20000;-66
2024/04/10 04:27:50;;;;;;;1999.90;999.90;;;9.20;99.90;;;;;;5543796;25;20008;-66
2024/04/10 04:30:15;;;;;;;1999.90;999.90;;;9.30;99.90;;;;;;5543536;25;19996;-67
2024/04/10 04:32:41;;;;;;;1999.90;999.90;;;9.30;99.90;;;;;;5543861;25;20113;-66
2024/04/10 04:35:07;;;;;;;1999.90;999.90;;;9.20;99.90;;;;;;5544112;25;20000;-66
2024/04/10 04:37:32;;;;;;;1999.90;999.90;;;9.20;99.90;;;;;;5543684;25;20297;-67
2024/04/10 04:39:59;;;;;;;1999.90;999.90;;;9.20;99.90;;;;;;5544232;25;19993;-66
2024/04/10 04:42:25;;;;;;;1999.90;999.90;;;9.20;99.90;;;;;;5531400;25;19989;-66
2024/04/10 04:44:50;;;;;;;1999.90;999.90;;;9.20;99.90;;;;;;5527519;25;20306;-66
2024/04/10 04:47:17;;;;;;;1999.90;999.90;;;9.20;99.90;;;;;;5527775;26;20324;-66
2024/04/10 04:49:42;;;;;;;1999.90;999.90;;;9.20;99.90;;;;;;5525757;26;20004;-66
2024/04/10 04:52:08;;;;;;;1999.90;999.90;;;9.10;99.90;;;;;;5527449;26;19993;-66
2024/04/10 04:54:34;;;;;;;1999.90;999.90;;;9.20;99.90;;;;;;5527340;26;20433;-66
2024/04/10 04:57:00;;;;;;;1999.90;999.90;;;9.10;99.90;;;;;;5527463;26;20087;-66
2024/04/10 04:59:25;;;;;;;1999.90;999.90;;;9.10;99.90;;;;;;5527670;26;19994;-66
2024/04/10 05:01:53;;;;;;;1999.90;999.90;;;9.20;99.90;;;;;;5527620;26;20068;-66
2024/04/10 05:07:04;;;;;;;1999.90;999.90;;;9.20;99.90;;;;;;5527250;26;20000;-66
2024/04/10 05:09:29;;;;;;;1999.90;999.90;;;9.10;99.90;;;;;;5542190;25;20016;-66
2024/04/10 05:11:55;;;;;;;1999.90;999.90;;;9.10;99.90;;;;;;5535413;25;20357;-66
2024/04/10 05:14:20;;;;;;;1999.90;999.90;;;9.10;99.90;;;;;;5526923;26;20002;-66
2024/04/10 05:16:46;;;;;;;1999.90;999.90;;;9.10;99.90;;;;;;5527153;26;19994;-67
2024/04/10 05:19:12;;;;;;;1999.90;999.90;;;9.10;99.90;;;;;;5526272;26;20001;-66
2024/04/10 05:21:38;;;;;;;1999.90;999.90;;;9.20;99.90;;;;;;5526559;26;20124;-67
2024/04/10 05:24:04;;;;;;;1999.90;999.90;;;9.20;99.90;;;;;;5494672;26;19998;-66
2024/04/10 05:26:30;;;;;;;1999.90;999.90;;;9.20;99.90;;;;;;5489489;26;20004;-67
2024/04/10 05:28:55;;;;;;;1999.90;999.90;;;9.20;99.90;;;;;;5521296;26;20008;-66
2024/04/10 05:31:21;;;;;;;1999.90;999.90;;;9.20;99.90;;;;;;5506069;26;19998;-66
2024/04/10 05:33:46;;;;;;;1999.90;999.90;;;9.30;99.90;;;;;;5511252;25;20444;-72
2024/04/10 05:36:12;;;;;;;1999.90;999.90;;;9.30;99.90;;;;;;5532979;25;20001;-66
2024/04/10 05:38:38;;;;;;;1999.90;999.90;;;9.30;99.90;;;;;;5527714;25;20368;-67
2024/04/10 05:41:03;;;;;;;1999.90;999.90;;;9.40;99.90;;;;;;5500887;25;20078;-67
2024/04/10 05:43:29;;;;;;;1999.90;999.90;;;9.40;99.90;;;;;;5518071;25;20312;-66
2024/04/10 05:45:56;;;;;;;1999.90;999.90;;;9.50;99.90;;;;;;5510790;25;20549;-67
2024/04/10 05:48:22;;;;;;;1999.90;999.90;;;9.50;99.90;;;;;;5525606;26;20390;-67
2024/04/10 05:50:48;;;;;;;1999.90;999.90;;;9.50;99.90;;;;;;5504100;26;20439;-66
2024/04/10 05:53:13;;;;;;;1999.90;999.90;;;9.60;99.90;;;;;;5505258;26;20064;-66
2024/04/10 05:55:39;;;;;;;1999.90;999.90;;;9.60;99.90;;;;;;5530201;25;19994;-72
2024/04/10 05:58:05;;;;;;;1999.90;999.90;;;9.60;99.90;;;;;;5535297;25;20099;-66
2024/04/10 06:00:31;;;;;;;1999.90;999.90;;;9.60;99.90;;;;;;5525159;25;19998;-68
2024/04/10 06:02:57;;;;;;;1999.90;999.90;;;9.60;99.90;;;;;;5505969;26;20001;-67
2024/04/10 06:05:24;;;;;;;1999.90;999.90;;;9.60;99.90;;;;;;5510305;26;20006;-67
2024/04/10 06:07:50;;;;;;;1999.90;999.90;;;9.60;99.90;;;;;;5509854;26;20436;-72
2024/04/10 06:10:19;;;;;;;1999.90;999.90;;;9.60;99.90;;;;;;5522227;25;20008;-67
2024/04/10 06:12:51;;;;;;;1999.90;999.90;;;9.60;99.90;;;;;;5509877;25;20005;-66
2024/04/10 06:15:17;;;;;;;1999.90;999.90;;;9.60;99.90;;;;;;5524875;26;19993;-66
2024/04/10 06:17:43;;;;;;;1999.90;999.90;;;9.70;99.90;;;;;;5526570;25;19993;-66
2024/04/10 06:20:11;;;;;;;1999.90;999.90;;;9.80;99.90;;;;;;5515644;26;20001;-66
2024/04/10 06:22:38;;;;;;;1999.90;999.90;;;9.90;99.90;;;;;;5513849;25;20008;-72
2024/04/10 06:25:04;;;;;;;1999.90;999.90;;;10.10;99.90;;;;;;5516694;25;20464;-66
2024/04/10 06:27:29;;;;;;;1999.90;999.90;;;10.20;99.90;;;;;;5517942;26;20120;-73
2024/04/10 06:29:55;;;;;;;1999.90;999.90;;;10.40;99.90;;;;;;5524223;26;20001;-66
2024/04/10 06:32:21;;;;;;;1999.90;999.90;;;10.70;99.90;;;;;;5505632;26;20009;-66
2024/04/10 06:34:46;;;;;;;1999.90;999.90;;;11.00;99.90;;;;;;5510309;25;20006;-67
2024/04/10 06:37:15;;;;;;;1999.90;999.90;;;11.40;99.90;;;;;;5522510;25;19993;-67
2024/04/10 06:39:40;;;;;;;1999.90;999.90;;;11.70;99.90;;;;;;5505541;26;20014;-67
2024/04/10 06:42:06;;;;;;;1999.90;999.90;;;12.00;99.90;;;;;;5524096;26;20322;-68
2024/04/10 06:44:32;;;;;;;1999.90;999.90;;;12.20;99.90;;;;;;5514177;26;19998;-67
2024/04/10 06:46:57;;;;;;;1999.90;999.90;;;12.20;99.90;;;;;;5509638;25;20017;-66
2024/04/10 06:49:23;;;;;;;1999.90;999.90;;;12.20;99.90;;;;;;5521054;26;19993;-71
2024/04/10 06:51:49;;;;;;;1999.90;999.90;;;12.20;99.90;;;;;;5512888;26;20459;-66
2024/04/10 06:54:15;;;;;;;1999.90;999.90;;;12.20;99.90;;;;;;5505921;26;19998;-66
2024/04/10 06:56:41;;;;;;;1999.90;999.90;;;12.10;99.90;;;;;;5513339;26;20072;-67
2024/04/10 06:59:07;;;;;;;1999.90;999.90;;;12.00;99.90;;;;;;5499545;25;20303;-69
2024/04/10 07:01:33;;;;;;;1999.90;999.90;;;12.00;99.90;;;;;;5508044;26;20008;-73
2024/04/10 07:03:58;;;;;;;1999.90;999.90;;;12.10;99.90;;;;;;5506594;26;20002;-68
2024/04/10 07:06:24;;;;;;;1999.90;999.90;;;12.30;99.90;;;;;;5513718;25;20072;-68
2024/04/10 07:08:51;;;;;;;1999.90;999.90;;;12.30;99.90;;;;;;5510770;26;20012;-67
2024/04/10 07:11:20;;;;;;;1999.90;999.90;;;12.30;99.90;;;;;;5489430;26;20006;-68
2024/04/10 07:13:53;;;;;;;1999.90;999.90;;;12.30;99.90;;;;;;5515519;26;20009;-73
2024/04/10 07:16:26;;;;;;;1999.90;999.90;;;12.40;99.90;;;;;;5522370;26;20333;-68
2024/04/10 07:18:55;;;;;;;1999.90;999.90;;;12.50;99.90;;;;;;5521082;26;20020;-73
2024/04/10 07:21:21;;;;;;;1999.90;999.90;;;12.70;99.90;;;;;;5521316;26;20124;-68
2024/04/10 07:23:48;;;;;;;1999.90;999.90;;;12.90;99.90;;;;;;5516174;26;20488;-73
2024/04/10 07:26:20;;;;;;;1999.90;999.90;;;13.00;99.90;;;;;;5522046;26;20187;-74
2024/04/10 07:28:46;;;;;;;1999.90;999.90;;;13.00;99.90;;;;;;5520678;26;20009;-74
2024/04/10 07:31:15;;;;;;;1999.90;999.90;;;13.10;99.90;;;;;;5505972;25;20021;-74
2024/04/10 07:33:41;;;;;;;1999.90;999.90;;;13.40;99.90;;;;;;5514736;26;20009;-68
2024/04/10 07:36:18;;;;;;;1999.90;999.90;;;13.70;99.90;;;;;;5521203;26;20116;-68
2024/04/10 07:38:44;;;;;;;1999.90;999.90;;;13.80;99.90;;;;;;5521370;26;20001;-73
2024/04/10 07:41:10;;;;;;;1999.90;999.90;;;13.50;99.90;;;;;;5511555;26;19993;-74
2024/04/10 07:43:36;;;;;;;1999.90;999.90;;;13.50;99.90;;;;;;5512825;26;19994;-68
2024/04/10 07:46:15;;;;;;;1999.90;999.90;;;13.40;99.90;;;;;;5520570;26;20017;-69
2024/04/10 07:48:43;;;;;;;1999.90;999.90;;;13.30;99.90;;;;;;5513362;25;20357;-68
2024/04/10 07:51:12;;;;;;;1999.90;999.90;;;13.30;99.90;;;;;;5520308;26;20024;-74
2024/04/10 07:53:40;;;;;;;1999.90;999.90;;;13.40;99.90;;;;;;5517766;25;20077;-68
2024/04/10 07:56:07;;;;;;;1999.90;999.90;;;13.40;99.90;;;;;;5496640;26;19990;-68
2024/04/10 07:58:33;;;;;;;1999.90;999.90;;;13.20;99.90;;;;;;5503454;26;20038;-68
2024/04/10 08:01:00;;;;;;;1999.90;999.90;;;13.10;99.90;;;;;;5496456;26;20046;-68
2024/04/10 08:03:28;;;;;;;1999.90;999.90;;;13.00;99.90;;;;;;5496923;26;20441;-73
2024/04/10 08:05:54;;;;;;;1999.90;999.90;;;12.90;99.90;;;;;;5499176;25;20017;-73
2024/04/10 08:08:19;;;;;;;1999.90;999.90;;;12.80;99.90;;;;;;5505693;26;19998;-68
2024/04/10 08:10:47;;;;;;;1999.90;999.90;;;12.80;99.90;;;;;;5503122;26;20002;-68
2024/04/10 08:13:13;;;;;;;1999.90;999.90;;;12.80;99.90;;;;;;5503792;26;19997;-70
2024/04/10 08:15:38;;;;;;;1999.90;999.90;;;13.00;99.90;;;;;;5515896;26;20005;-73
2024/04/10 08:18:05;;;;;;;1999.90;999.90;;;13.10;99.90;;;;;;5517032;26;20013;-68
2024/04/10 08:20:31;;;;;;;1999.90;999.90;;;13.30;99.90;;;;;;5526419;25;20016;-73
2024/04/10 08:22:58;;;;;;;1999.90;999.90;;;13.60;99.90;;;;;;5528426;25;20410;-69
2024/04/10 08:25:24;;;;;;;1999.90;999.90;;;14.20;99.90;;;;;;5531301;25;20001;-70
2024/04/10 08:27:49;;;;;;;1999.90;999.90;;;14.80;99.90;;;;;;5524146;26;20016;-69
2024/04/10 08:30:15;;;;;;;1999.90;999.90;;;15.50;99.90;;;;;;5522589;26;20005;-73
2024/04/10 08:32:40;;;;;;;1999.90;999.90;;;16.30;99.90;;;;;;5522632;26;19998;-69
2024/04/10 08:35:07;;;;;;;1999.90;999.90;;;15.90;99.90;;;;;;5511347;26;20009;-68
2024/04/10 08:37:33;;;;;;;1999.90;999.90;;;16.10;99.90;;;;;;5523376;25;20002;-68
2024/04/10 08:39:58;;;;;;;1999.90;999.90;;;17.40;99.90;;;;;;5516006;26;20013;-70
2024/04/10 08:42:27;;;;;;;1999.90;999.90;;;19.10;99.90;;;;;;5514255;26;19997;-72
2024/04/10 08:44:54;;;;;;;1999.90;999.90;;;20.40;99.90;;;;;;5522143;26;20012;-72
2024/04/10 08:47:21;;;;;;;1999.90;999.90;;;22.70;99.90;;;;;;5520778;26;20016;-69
2024/04/10 08:49:47;;;;;;;1999.90;999.90;;;23.30;99.90;;;;;;5521049;26;19998;-68
2024/04/10 08:52:15;;;;;;;1999.90;999.90;;;23.60;99.90;;;;;;5512056;25;20089;-68
2024/04/10 08:54:40;;;;;;;1999.90;999.90;;;23.20;99.90;;;;;;5494784;26;20199;-71
2024/04/10 08:57:06;;;;;;;1999.90;999.90;;;24.80;99.90;;;;;;5501637;25;20420;-71
2024/04/10 08:59:32;;;;;;;1999.90;999.90;;;25.60;99.90;;;;;;5530652;25;20009;-70
2024/04/10 09:01:58;;;;;;;1999.90;999.90;;;25.50;99.90;;;;;;5516381;26;20012;-69
2024/04/10 09:04:24;;;;;;;1999.90;999.90;;;26.00;99.90;;;;;;5522283;26;19998;-68
2024/04/10 09:07:00;;;;;;;1999.90;999.90;;;23.10;99.90;;;;;;5511548;26;19993;-70
2024/04/10 09:09:25;;;;;;;1999.90;999.90;;;20.00;99.90;;;;;;5513970;26;20034;-71
2024/04/10 09:11:51;;;;;;;1999.90;999.90;;;17.50;99.90;;;;;;5511271;25;20016;-69
2024/04/10 09:14:17;;;;;;;1999.90;999.90;;;16.00;99.90;;;;;;5514361;26;20080;-69
2024/04/10 09:16:43;;;;;;;1999.90;999.90;;;15.00;99.90;;;;;;5523075;26;20005;-72
2024/04/10 09:19:17;;;;;;;1999.90;999.90;;;14.50;99.90;;;;;;5522051;26;20440;-71
2024/04/10 09:21:56;;;;;;;1999.90;999.90;;;14.40;99.90;;;;;;5522421;26;20365;-69
2024/04/10 09:24:29;;;;;;;1999.90;999.90;;;14.40;99.90;;;;;;5525323;25;20004;-71
2024/04/10 09:26:54;;;;;;;1999.90;999.90;;;14.30;99.90;;;;;;5519324;25;20013;-69
2024/04/10 09:29:24;;;;;;;1999.90;999.90;;;14.20;99.90;;;;;;5521265;26;19998;-68
2024/04/10 09:31:51;;;;;;;1999.90;999.90;;;14.20;99.90;;;;;;5513365;26;20012;-68
2024/04/10 09:34:20;;;;;;;1999.90;999.90;;;14.10;99.90;;;;;;5519541;25;20273;-68
2024/04/10 09:36:46;;;;;;;1999.90;999.90;;;14.20;99.90;;;;;;5510242;26;20469;-68
2024/04/10 09:39:12;;;;;;;1999.90;999.90;;;14.70;99.90;;;;;;5520832;26;20012;-70
2024/04/10 09:41:39;;;;;;;1999.90;999.90;;;19.10;99.90;;;;;;5507996;26;20001;-69
2024/04/10 09:44:05;;;;;;;1999.90;999.90;;;22.20;99.90;;;;;;5513762;25;20286;-69
2024/04/10 09:46:38;;;;;;;1999.90;999.90;;;25.20;99.90;;;;;;5515144;26;20001;-70
2024/04/10 09:49:13;;;;;;;1999.90;999.90;;;26.20;99.90;;;;;;5521344;26;20403;-67
2024/04/10 09:51:40;;;;;;;1999.90;999.90;;;24.50;99.90;;;;;;5508890;26;19994;-68
2024/04/10 09:54:11;;;;;;;1999.90;999.90;;;24.80;99.90;;;;;;5504359;26;20303;-67
2024/04/10 09:56:39;;;;;;;1999.90;999.90;;;22.20;99.90;;;;;;5517453;26;20009;-68
2024/04/10 09:59:13;;;;;;;1999.90;999.90;;;19.40;99.90;;;;;;5519894;26;20001;-68
2024/04/10 10:01:38;;;;;;;1999.90;999.90;;;17.20;99.90;;;;;;5508762;26;19993;-70
2024/04/10 10:04:04;;;;;;;1999.90;999.90;;;16.30;99.90;;;;;;5504165;26;20429;-71
2024/04/10 10:06:31;;;;;;;1999.90;999.90;;;15.70;99.90;;;;;;5507610;25;20042;-68
2024/04/10 10:08:58;;;;;;;1999.90;999.90;;;15.70;99.90;;;;;;5518589;25;20073;-69
2024/04/10 10:11:24;;;;;;;1999.90;999.90;;;17.10;99.90;;;;;;5509382;26;20340;-69
2024/04/10 10:14:03;;;;;;;1999.90;999.90;;;17.80;99.90;;;;;;5521926;26;20001;-71
2024/04/10 10:16:33;;;;;;;1999.90;999.90;;;18.20;99.90;;;;;;5519696;26;20005;-68
2024/04/10 10:19:00;;;;;;;1999.90;999.90;;;18.30;99.90;;;;;;5516003;26;20415;-69
2024/04/10 10:21:28;;;;;;;1999.90;999.90;;;18.90;99.90;;;;;;5520594;26;19998;-69
2024/04/10 10:24:04;;;;;;;1999.90;999.90;;;18.80;99.90;;;;;;5504802;26;19997;-68
2024/04/10 10:26:30;;;;;;;1999.90;999.90;;;17.70;99.90;;;;;;5510212;25;20012;-69
2024/04/10 10:29:07;;;;;;;1999.90;999.90;;;17.40;99.90;;;;;;5517367;26;20282;-72
2024/04/10 10:31:34;;;;;;;1999.90;999.90;;;16.70;99.90;;;;;;5507980;26;20013;-68
2024/04/10 10:34:03;;;;;;;1999.90;999.90;;;15.60;99.90;;;;;;5521132;26;19993;-67
2024/04/10 10:36:33;;;;;;;1999.90;999.90;;;15.40;99.90;;;;;;5521757;26;20004;-68
2024/04/10 10:39:13;;;;;;;1999.90;999.90;;;15.50;99.90;;;;;;5522016;26;20012;-71
2024/04/10 10:41:39;;;;;;;1999.90;999.90;;;15.60;99.90;;;;;;5499762;25;20429;-70
2024/04/10 10:44:05;;;;;;;1999.90;999.90;;;15.70;99.90;;;;;;5511509;26;20008;-68
2024/04/10 10:46:32;;;;;;;1999.90;999.90;;;15.90;99.90;;;;;;5522698;26;19998;-71
2024/04/10 10:48:58;;;;;;;1999.90;999.90;;;15.80;99.90;;;;;;5519904;26;20009;-68
2024/04/10 10:51:24;;;;;;;1999.90;999.90;;;15.20;99.90;;;;;;5520839;26;20029;-68
2024/04/10 10:53:51;;;;;;;1999.90;999.90;;;14.90;99.90;;;;;;5520446;26;20013;-71
2024/04/10 10:56:28;;;;;;;1999.90;999.90;;;15.90;99.90;;;;;;5522076;26;20001;-68
2024/04/10 10:58:54;;;;;;;1999.90;999.90;;;16.10;99.90;;;;;;5519527;26;19997;-69
2024/04/10 11:01:20;;;;;;;1999.90;999.90;;;16.30;99.90;;;;;;5501432;26;20013;-68
2024/04/10 11:03:49;;;;;;;1999.90;999.90;;;17.00;99.90;;;;;;5511045;26;20081;-72
2024/04/10 11:06:16;;;;;;;1999.90;999.90;;;18.10;99.90;;;;;;5510402;26;19997;-69
2024/04/10 11:08:42;;;;;;;1999.90;999.90;;;17.90;99.90;;;;;;5518892;26;20040;-72
2024/04/10 11:11:12;;;;;;;1999.90;999.90;;;16.90;99.90;;;;;;5510286;26;20001;-68
2024/04/10 11:13:49;;;;;;;1999.90;999.90;;;16.60;99.90;;;;;;5521275;26;20452;-68
2024/04/10 11:16:27;;;;;;;1999.90;999.90;;;16.30;99.90;;;;;;5521960;25;19998;-68
2024/04/10 11:18:54;;;;;;;1999.90;999.90;;;15.60;99.90;;;;;;5510204;26;20073;-71
2024/04/10 11:21:19;;;;;;;1999.90;999.90;;;15.30;99.90;;;;;;5486279;26;20021;-68
2024/04/10 11:23:45;;;;;;;1999.90;999.90;;;14.70;99.90;;;;;;5516672;26;19998;-67
2024/04/10 11:26:11;;;;;;;1999.90;999.90;;;14.50;99.90;;;;;;5515875;26;19995;-68
2024/04/10 11:28:37;;;;;;;1999.90;999.90;;;14.30;99.90;;;;;;5504981;26;20086;-68
2024/04/10 11:31:03;;;;;;;1999.90;999.90;;;14.20;99.90;;;;;;5506512;26;20005;-70
2024/04/10 11:33:28;;;;;;;1999.90;999.90;;;14.10;99.90;;;;;;5526423;25;19997;-70
2024/04/10 11:35:59;;;;;;;1999.90;999.90;;;14.00;99.90;;;;;;5521033;26;20009;-68
2024/04/10 11:38:25;;;;;;;1999.90;999.90;;;14.40;99.90;;;;;;5514368;25;19998;-69
2024/04/10 11:40:51;;;;;;;1999.90;999.90;;;15.10;99.90;;;;;;5503425;26;19998;-68
2024/04/10 11:43:16;;;;;;;1999.90;999.90;;;15.90;99.90;;;;;;5504991;26;20286;-69
2024/04/10 11:45:43;;;;;;;1999.90;999.90;;;16.70;99.90;;;;;;5512602;26;20002;-71
2024/04/10 11:48:09;;;;;;;1999.90;999.90;;;16.90;99.90;;;;;;5518510;25;19994;-71
2024/04/10 11:50:35;;;;;;;1999.90;999.90;;;16.90;99.90;;;;;;5512381;26;20009;-69
2024/04/10 11:53:00;;;;;;;1999.90;999.90;;;16.70;99.90;;;;;;5524284;26;20336;-69
2024/04/10 11:55:28;;;;;;;1999.90;999.90;;;16.30;99.90;;;;;;5524132;26;20588;-68
2024/04/10 11:57:54;;;;;;;1999.90;999.90;;;16.60;99.90;;;;;;5524264;26;19998;-69
2024/04/10 12:00:19;;;;;;;1999.90;999.90;;;16.90;99.90;;;;;;5521393;26;19997;-69
2024/04/10 12:02:45;;;;;;;1999.90;999.90;;;16.40;99.90;;;;;;5523755;26;20005;-68
2024/04/10 12:05:11;;;;;;;1999.90;999.90;;;16.10;99.90;;;;;;5524151;26;20014;-69